Historyczne dane pomiarowe

Dodano dane terminowe – wersja testowa.

Dane z okresu 1951-2019

Wersja bazy: 1.34 [2019-03-16, lista zmian], aktualizacja planowana na 2019-04-15

Dane meteo z obszaru Polski uzyskane na podstawie danych udostępnionych przez Instytut Meteorologii i Gospodarki Wodnej – Państwowy Instytut Badawczy.

 

Wybierz Datę:    

       

TemperaturaWilgotnośćWiatrCiśnienieOpadyŚniegCzas trwania zjawisk
 Stacja t tx tn tng RH VA  wxwx mslp ppp RRR   cm mm wxwxwxwxwxwxwx
1956-11-09 -0.3 2.7 -2.8 -4.3 77.5- 3.3 2.7---- 0.0------------
1956-11-08 0.6 4.4 -3.5- 69.8- 2.7 0.3---- 0.0------------
1956-11-07 1.9 4.4 -1.2 5.8 71.3- 4.0 2.0---- 0.0------------
1956-11-06 4.0 5.7 0.2 4.8 65.8- 6.0 4.7---- 4.8------------
1956-11-05 6.0 8.6 2.9 7.1 65.3- 4.7 8.0---- 1.3------------
1956-11-04 3.5 5.1 -0.9 0.8 79.3- 7.3 3.7---- 1.0------------
1956-11-03 1.3 5.5 -1.3 -0.7 73.0- 2.0 1.0---- 0.0------------
1956-11-02 2.4 5.9 0.2 -3.1 70.3- 3.3 1.0---- 0.0------------
1956-11-01 1.3 2.0 -2.7 -7.8 89.8- 6.3 4.3---- 0.7------------
1956-10-31 -1.6 2.7 -6.1- 69.5- 1.7 1.0---- 0.1------------
1956-10-30 -0.2 1.4 -1.2 1.1 88.0- 4.7 5.0---- 0.0------------
1956-10-29 3.2 6.8 0.2 4.1 79.0- 8.0 5.3---- 0.0------------
1956-10-28 7.4 8.4 5.8 6.6 90.3- 8.0 3.3---- 0.8------------
1956-10-27 6.9 8.6 2.0 2.8 86.8- 7.3 7.3---- 20.7------------
1956-10-26 5.8 8.8 3.8 2.8 85.5- 6.0 2.0---- 0.0------------
1956-10-25 9.4 13.0 5.8 10.5 82.3- 6.0 2.7---- 0.8------------
1956-10-24 12.4 13.8 9.4 8.9 86.8- 8.0 3.3---- 0.4------------
1956-10-23 10.5 11.9 9.3 8.5 78.5- 8.0 4.7---- 0.0------------
1956-10-22 11.9 12.8 10.4 10.3 75.8- 7.3 5.7---- 0.0------------
1956-10-21 12.4 13.1 9.1 8.0 87.3- 5.3 4.0---- 0.0------------
1956-10-20 10.2 11.7 5.6 5.3 89.0- 8.0 1.0---- 1.7------------
1956-10-19 9.9 13.2 7.3 9.5 90.5- 6.3 2.3---- 0.0------------
1956-10-18 12.1 12.7 9.8 8.3 96.0- 8.0 1.7---- 10.4------------
1956-10-17 10.4 15.2 3.8 3.8 69.3- 2.7 3.7---- 0.4------------
1956-10-16 7.1 13.6 -0.1 -0.2 70.8- 0.3 0.7---- 0.0------------
1956-10-15 4.9 10.6 0.8 -2.2 82.8- 0.0 1.0---- 0.0------------
1956-10-14 9.5 10.5 7.6 6.3 60.3- 3.3 5.3---- 0.0------------
1956-10-13 10.6 11.8 9.0 9.0 82.3- 8.0 10.7---- 48.6------------
1956-10-12 10.6 11.8 9.3 9.8 82.0- 7.7 8.7---- 0.0------------
1956-10-11 10.7 12.0 5.8 3.7 83.8- 7.7 6.7---- 0.0------------
1956-10-10 6.1 10.5 -0.7- 75.8- 3.3 3.0---- 0.0------------
1956-10-09 7.8 10.7 4.8 5.3 82.0- 5.7 4.0---- 4.1------------
1956-10-08 6.4 9.8 3.6 3.0 77.0- 7.3 2.7---- 13.4------------
1956-10-07 7.1 8.8 4.4 6.5 80.3- 5.7 5.0---- 23.9------------
1956-10-06 7.1 9.8 2.3 5.8 83.0- 4.7 2.0---- 2.4------------
1956-10-05 6.2 10.3 3.8 5.4 89.3- 5.3 2.0---- 2.7------------
1956-10-04 9.6 14.0 6.2 5.3 82.3- 4.7 3.0---- 0.0------------
1956-10-03 10.5 14.0 7.0 11.3 91.3- 5.0 4.7---- 1.7------------
1956-10-02 14.8 19.6 10.4 9.3 88.8- 7.0 4.7---- 15.4------------
1956-10-01 13.0 16.0 8.1 6.8 91.3- 5.3 2.3---- 23.9------------
1956-09-30 12.3 18.0 8.8 7.8 82.0- 1.0 3.7---- 0.0------------
1956-09-29 13.8 17.3 11.9 11.2 80.3- 4.0 7.3---- 0.0------------
1956-09-28 15.4 17.5 12.8 12.0 82.8- 6.7 6.7---- 6.5------------
1956-09-27 14.4 18.5 10.6 10.0 90.8- 5.3 3.0---- 9.3------------
1956-09-26 16.1 21.9 9.4 8.8 66.5- 0.0 3.0---- 0.0------------
1956-09-25 13.4 20.2 3.1 3.0 70.5- 0.0 2.3---- 0.0------------
1956-09-24 10.8 16.7 4.8 2.3 57.5- 0.0 2.0---- 0.0------------
1956-09-23 13.2 18.5 9.2 7.9 72.5- 2.3 2.0---- 0.0------------
1956-09-22 13.7 19.3 8.3 7.8 69.5- 0.0 2.7---- 0.0------------
1956-09-21 11.0 18.7 2.5 1.1 84.3- 0.0 0.3---- 0.0------------
1956-09-20 10.0 15.9 5.5 3.8 85.5- 4.0 0.3---- 0.0------------
1956-09-19 9.2 15.6 1.2 1.0 84.5- 3.0 0.3---- 0.0------------
1956-09-18 9.2 13.8 4.3 1.0 82.8- 3.3 2.0---- 0.0------------
1956-09-17 9.7 13.8 5.8 7.5 74.0- 2.3 2.3---- 0.0------------
1956-09-16 12.2 13.9 7.1 6.5 72.5- 6.0 8.3---- 0.4------------
1956-09-15 12.4 14.2 9.8 7.9 71.3- 5.7 6.0---- 0.0------------
1956-09-14 10.9 15.8 3.8 1.4 83.5- 4.3 1.7---- 0.1------------
1956-09-13 9.6 12.0 7.4 7.9 88.0- 4.0 4.0---- 3.8------------
1956-09-12 12.2 15.5 10.3 9.5 70.8- 4.0 7.3---- 3.6------------
1956-09-11 15.2 19.2 10.2 7.4 89.0- 4.3 1.3---- 3.3------------
255.1 ms

 

Źródłem pochodzenia danych jest Instytut Meteorologii i Gospodarki Wodnej – Państwowy Instytut Badawczy. Dane Instytutu Meteorologii i Gospodarki Wodnej – Państwowego Instytutu Badawczego zostały przetworzone.

Dane źródłowe można odnaleźć na stronie https://dane.imgw.pl